sensor_id;sensor_type;location;lat;lon;timestamp;pressure;altitude;pressure_sealevel;temperature;humidity
50011;BME280;35899;50.352;19.390;2022-12-17T00:00:37;97521.27;;;-4.02;100.00
50011;BME280;35899;50.352;19.390;2022-12-17T00:03:06;97526.34;;;-4.02;100.00
50011;BME280;35899;50.352;19.390;2022-12-17T00:05:34;97532.25;;;-4.00;100.00
50011;BME280;35899;50.352;19.390;2022-12-17T00:08:00;97528.88;;;-4.02;100.00
50011;BME280;35899;50.352;19.390;2022-12-17T00:10:27;97536.53;;;-4.03;100.00
50011;BME280;35899;50.352;19.390;2022-12-17T00:12:53;97531.87;;;-4.04;100.00
50011;BME280;35899;50.352;19.390;2022-12-17T00:15:20;97527.68;;;-4.05;100.00
50011;BME280;35899;50.352;19.390;2022-12-17T00:17:46;97531.50;;;-4.06;100.00
50011;BME280;35899;50.352;19.390;2022-12-17T00:20:13;97534.89;;;-4.07;100.00
50011;BME280;35899;50.352;19.390;2022-12-17T00:22:39;97540.80;;;-4.05;100.00
50011;BME280;35899;50.352;19.390;2022-12-17T00:25:07;97537.84;;;-4.06;100.00
50011;BME280;35899;50.352;19.390;2022-12-17T00:27:33;97542.47;;;-4.06;100.00
50011;BME280;35899;50.352;19.390;2022-12-17T00:30:00;97548.81;;;-4.06;100.00
50011;BME280;35899;50.352;19.390;2022-12-17T00:32:27;97550.09;;;-4.07;100.00
50011;BME280;35899;50.352;19.390;2022-12-17T00:34:53;97550.95;;;-4.07;100.00
50011;BME280;35899;50.352;19.390;2022-12-17T00:37:19;97558.95;;;-4.06;100.00
50011;BME280;35899;50.352;19.390;2022-12-17T00:39:46;97562.30;;;-4.04;100.00
50011;BME280;35899;50.352;19.390;2022-12-17T00:42:12;97557.64;;;-4.03;100.00
50011;BME280;35899;50.352;19.390;2022-12-17T00:44:39;97562.71;;;-4.03;100.00
50011;BME280;35899;50.352;19.390;2022-12-17T00:47:05;97569.90;;;-4.04;100.00
50011;BME280;35899;50.352;19.390;2022-12-17T00:49:32;97576.28;;;-4.05;100.00
50011;BME280;35899;50.352;19.390;2022-12-17T00:51:58;97585.56;;;-4.06;100.00
50011;BME280;35899;50.352;19.390;2022-12-17T00:54:25;97580.48;;;-4.04;100.00
50011;BME280;35899;50.352;19.390;2022-12-17T00:56:51;97575.39;;;-4.03;100.00
50011;BME280;35899;50.352;19.390;2022-12-17T00:59:19;97577.92;;;-4.03;100.00
50011;BME280;35899;50.352;19.390;2022-12-17T01:01:48;97580.44;;;-4.01;100.00
50011;BME280;35899;50.352;19.390;2022-12-17T01:04:15;97581.24;;;-3.99;100.00
50011;BME280;35899;50.352;19.390;2022-12-17T01:06:41;97585.41;;;-3.97;100.00
50011;BME280;35899;50.352;19.390;2022-12-17T01:09:07;97588.34;;;-3.94;100.00
50011;BME280;35899;50.352;19.390;2022-12-17T01:11:34;97588.37;;;-3.96;100.00
50011;BME280;35899;50.352;19.390;2022-12-17T01:14:00;97587.95;;;-3.97;100.00
50011;BME280;35899;50.352;19.390;2022-12-17T01:16:28;97588.41;;;-3.99;100.00
50011;BME280;35899;50.352;19.390;2022-12-17T01:18:54;97584.22;;;-4.00;100.00
50011;BME280;35899;50.352;19.390;2022-12-17T01:21:22;97585.06;;;-4.01;100.00
50011;BME280;35899;50.352;19.390;2022-12-17T01:23:49;97585.11;;;-4.04;100.00
50011;BME280;35899;50.352;19.390;2022-12-17T01:26:15;97596.94;;;-4.03;100.00
50011;BME280;35899;50.352;19.390;2022-12-17T01:28:42;97596.94;;;-4.03;100.00
50011;BME280;35899;50.352;19.390;2022-12-17T01:31:09;97597.78;;;-4.04;100.00
50011;BME280;35899;50.352;19.390;2022-12-17T01:33:35;97601.13;;;-4.02;100.00
50011;BME280;35899;50.352;19.390;2022-12-17T01:36:02;97604.54;;;-4.03;100.00
50011;BME280;35899;50.352;19.390;2022-12-17T01:38:29;97611.34;;;-4.05;100.00
50011;BME280;35899;50.352;19.390;2022-12-17T01:40:55;97609.28;;;-4.08;100.00
50011;BME280;35899;50.352;19.390;2022-12-17T01:43:32;97606.77;;;-4.10;100.00
50011;BME280;35899;50.352;19.390;2022-12-17T01:45:59;97606.78;;;-4.12;100.00
50011;BME280;35899;50.352;19.390;2022-12-17T01:48:30;97620.34;;;-4.13;100.00
50011;BME280;35899;50.352;19.390;2022-12-17T01:50:59;97616.98;;;-4.13;100.00
50011;BME280;35899;50.352;19.390;2022-12-17T01:53:32;97617.36;;;-4.12;100.00
50011;BME280;35899;50.352;19.390;2022-12-17T01:56:01;97616.91;;;-4.10;100.00
50011;BME280;35899;50.352;19.390;2022-12-17T01:58:29;97618.98;;;-4.08;100.00
50011;BME280;35899;50.352;19.390;2022-12-17T02:00:55;97622.78;;;-4.08;100.00
50011;BME280;35899;50.352;19.390;2022-12-17T02:03:22;97624.93;;;-4.09;100.00
50011;BME280;35899;50.352;19.390;2022-12-17T02:06:09;97612.72;;;-4.11;100.00
50011;BME280;35899;50.352;19.390;2022-12-17T02:11:39;97619.92;;;-4.14;100.00
50011;BME280;35899;50.352;19.390;2022-12-17T02:14:27;97614.87;;;-4.15;100.00
50011;BME280;35899;50.352;19.390;2022-12-17T02:16:58;97606.09;;;-4.20;100.00
50011;BME280;35899;50.352;19.390;2022-12-17T02:22:17;97599.40;;;-4.24;100.00
50011;BME280;35899;50.352;19.390;2022-12-17T02:25:21;97598.15;;;-4.25;100.00
50011;BME280;35899;50.352;19.390;2022-12-17T02:27:50;97594.33;;;-4.24;100.00
50011;BME280;35899;50.352;19.390;2022-12-17T02:30:18;97578.75;;;-4.26;100.00
50011;BME280;35899;50.352;19.390;2022-12-17T02:32:46;97572.84;;;-4.28;100.00
50011;BME280;35899;50.352;19.390;2022-12-17T02:35:17;97568.29;;;-4.32;100.00
50011;BME280;35899;50.352;19.390;2022-12-17T02:37:47;97567.87;;;-4.33;100.00
50011;BME280;35899;50.352;19.390;2022-12-17T02:40:14;97568.72;;;-4.34;100.00
50011;BME280;35899;50.352;19.390;2022-12-17T02:42:44;97556.09;;;-4.36;100.00
50011;BME280;35899;50.352;19.390;2022-12-17T02:45:13;97551.48;;;-4.38;100.00
50011;BME280;35899;50.352;19.390;2022-12-17T02:47:42;97555.31;;;-4.39;100.00
50011;BME280;35899;50.352;19.390;2022-12-17T02:50:10;97548.99;;;-4.41;100.00
50011;BME280;35899;50.352;19.390;2022-12-17T02:52:39;97548.99;;;-4.41;100.00
50011;BME280;35899;50.352;19.390;2022-12-17T02:55:10;97538.49;;;-4.43;100.00
50011;BME280;35899;50.352;19.390;2022-12-17T02:57:37;97548.64;;;-4.45;100.00
50011;BME280;35899;50.352;19.390;2022-12-17T03:00:04;97559.22;;;-4.45;100.00
50011;BME280;35899;50.352;19.390;2022-12-17T03:02:31;97587.10;;;-4.47;100.00
50011;BME280;35899;50.352;19.390;2022-12-17T03:04:58;97614.97;;;-4.47;100.00
50011;BME280;35899;50.352;19.390;2022-12-17T03:07:24;97638.58;;;-4.45;100.00
50011;BME280;35899;50.352;19.390;2022-12-17T03:09:51;97647.01;;;-4.44;100.00
50011;BME280;35899;50.352;19.390;2022-12-17T03:12:17;97655.03;;;-4.43;100.00
50011;BME280;35899;50.352;19.390;2022-12-17T03:14:44;97664.27;;;-4.41;100.00
50011;BME280;35899;50.352;19.390;2022-12-17T03:17:10;97678.63;;;-4.40;100.00
50011;BME280;35899;50.352;19.390;2022-12-17T03:19:36;97690.42;;;-4.39;100.00
50011;BME280;35899;50.352;19.390;2022-12-17T03:22:03;97702.62;;;-4.35;100.00
50011;BME280;35899;50.352;19.390;2022-12-17T03:24:29;97706.80;;;-4.33;100.00
50011;BME280;35899;50.352;19.390;2022-12-17T03:26:56;97718.19;;;-4.31;100.00
50011;BME280;35899;50.352;19.390;2022-12-17T03:29:22;97722.42;;;-4.32;100.00
50011;BME280;35899;50.352;19.390;2022-12-17T03:31:48;97731.69;;;-4.30;100.00
50011;BME280;35899;50.352;19.390;2022-12-17T03:34:15;97737.98;;;-4.27;100.00
50011;BME280;35899;50.352;19.390;2022-12-17T03:36:41;97746.41;;;-4.25;100.00
50011;BME280;35899;50.352;19.390;2022-12-17T03:39:08;97748.09;;;-4.24;100.00
50011;BME280;35899;50.352;19.390;2022-12-17T03:41:34;97733.73;;;-4.25;100.00
50011;BME280;35899;50.352;19.390;2022-12-17T03:44:01;97724.83;;;-4.22;100.00
50011;BME280;35899;50.352;19.390;2022-12-17T03:46:27;97722.70;;;-4.23;100.00
50011;BME280;35899;50.352;19.390;2022-12-17T03:48:53;97720.63;;;-4.25;100.00
50011;BME280;35899;50.352;19.390;2022-12-17T03:51:20;97717.72;;;-4.27;100.00
50011;BME280;35899;50.352;19.390;2022-12-17T03:53:47;97707.61;;;-4.30;100.00
50011;BME280;35899;50.352;19.390;2022-12-17T03:56:13;97702.62;;;-4.35;100.00
50011;BME280;35899;50.352;19.390;2022-12-17T03:58:39;97688.33;;;-4.39;100.00
50011;BME280;35899;50.352;19.390;2022-12-17T04:01:06;97692.14;;;-4.41;100.00
50011;BME280;35899;50.352;19.390;2022-12-17T04:03:32;97700.59;;;-4.42;100.00
50011;BME280;35899;50.352;19.390;2022-12-17T04:05:58;97696.83;;;-4.43;100.00
50011;BME280;35899;50.352;19.390;2022-12-17T04:08:25;97691.34;;;-4.44;100.00
50011;BME280;35899;50.352;19.390;2022-12-17T04:10:51;97687.17;;;-4.47;100.00
50011;BME280;35899;50.352;19.390;2022-12-17T04:13:17;97679.55;;;-4.45;100.00
50011;BME280;35899;50.352;19.390;2022-12-17T04:15:44;97671.95;;;-4.45;100.00
50011;BME280;35899;50.352;19.390;2022-12-17T04:18:10;97664.38;;;-4.47;100.00
50011;BME280;35899;50.352;19.390;2022-12-17T04:20:36;97662.30;;;-4.50;100.00
50011;BME280;35899;50.352;19.390;2022-12-17T04:23:03;97658.96;;;-4.53;100.00
50011;BME280;35899;50.352;19.390;2022-12-17T04:25:29;97661.09;;;-4.55;100.00
50011;BME280;35899;50.352;19.390;2022-12-17T04:27:55;97665.31;;;-4.54;100.00
50011;BME280;35899;50.352;19.390;2022-12-17T04:30:22;97661.95;;;-4.55;100.00
50011;BME280;35899;50.352;19.390;2022-12-17T04:32:48;97661.95;;;-4.55;100.00
50011;BME280;35899;50.352;19.390;2022-12-17T04:35:14;97674.17;;;-4.54;100.00
50011;BME280;35899;50.352;19.390;2022-12-17T04:37:41;97675.45;;;-4.56;100.00
50011;BME280;35899;50.352;19.390;2022-12-17T04:40:09;97689.39;;;-4.56;100.00
50011;BME280;35899;50.352;19.390;2022-12-17T04:42:36;97690.64;;;-4.54;100.00
50011;BME280;35899;50.352;19.390;2022-12-17T04:45:02;97688.55;;;-4.55;100.00
50011;BME280;35899;50.352;19.390;2022-12-17T04:47:29;97686.83;;;-4.53;100.00
50011;BME280;35899;50.352;19.390;2022-12-17T04:49:55;97687.66;;;-4.52;100.00
50011;BME280;35899;50.352;19.390;2022-12-17T04:52:22;97693.59;;;-4.53;100.00
50011;BME280;35899;50.352;19.390;2022-12-17T04:54:48;97704.14;;;-4.55;100.00
50011;BME280;35899;50.352;19.390;2022-12-17T04:57:14;97707.95;;;-4.55;100.00
50011;BME280;35899;50.352;19.390;2022-12-17T04:59:41;97717.23;;;-4.54;100.00
50011;BME280;35899;50.352;19.390;2022-12-17T05:02:07;97718.43;;;-4.49;100.00
50011;BME280;35899;50.352;19.390;2022-12-17T05:04:33;97719.29;;;-4.49;100.00
50011;BME280;35899;50.352;19.390;2022-12-17T05:07:00;97723.47;;;-4.46;100.00
50011;BME280;35899;50.352;19.390;2022-12-17T05:09:26;97729.80;;;-4.46;100.00
50011;BME280;35899;50.352;19.390;2022-12-17T05:11:53;97734.87;;;-4.46;100.00
50011;BME280;35899;50.352;19.390;2022-12-17T05:14:19;97734.02;;;-4.45;100.00
50011;BME280;35899;50.352;19.390;2022-12-17T05:16:45;97733.98;;;-4.44;100.00
50011;BME280;35899;50.352;19.390;2022-12-17T05:19:12;97744.53;;;-4.43;100.00
50011;BME280;35899;50.352;19.390;2022-12-17T05:21:38;97745.34;;;-4.41;100.00
50011;BME280;35899;50.352;19.390;2022-12-17T05:24:04;97755.92;;;-4.41;100.00
50011;BME280;35899;50.352;19.390;2022-12-17T05:26:31;97752.97;;;-4.42;100.00
50011;BME280;35899;50.352;19.390;2022-12-17T05:28:57;97748.71;;;-4.40;100.00
50011;BME280;35899;50.352;19.390;2022-12-17T05:31:23;97756.31;;;-4.40;100.00
50011;BME280;35899;50.352;19.390;2022-12-17T05:33:49;97765.20;;;-4.42;100.00
50011;BME280;35899;50.352;19.390;2022-12-17T05:36:16;97758.91;;;-4.43;100.00
50011;BME280;35899;50.352;19.390;2022-12-17T05:38:42;97758.48;;;-4.44;100.00
50011;BME280;35899;50.352;19.390;2022-12-17T05:41:08;97763.16;;;-4.45;100.00
50011;BME280;35899;50.352;19.390;2022-12-17T05:43:35;97770.71;;;-4.44;100.00
50011;BME280;35899;50.352;19.390;2022-12-17T05:46:01;97764.38;;;-4.44;100.00
50011;BME280;35899;50.352;19.390;2022-12-17T05:48:28;97763.53;;;-4.43;100.00
50011;BME280;35899;50.352;19.390;2022-12-17T05:50:55;97764.00;;;-4.46;100.00
50011;BME280;35899;50.352;19.390;2022-12-17T05:53:21;97774.15;;;-4.48;100.00
50011;BME280;35899;50.352;19.390;2022-12-17T05:55:51;97767.81;;;-4.48;100.00
50011;BME280;35899;50.352;19.390;2022-12-17T05:58:18;97768.64;;;-4.47;100.00
50011;BME280;35899;50.352;19.390;2022-12-17T06:00:44;97774.58;;;-4.47;100.00
50011;BME280;35899;50.352;19.390;2022-12-17T06:03:10;97774.58;;;-4.47;100.00
50011;BME280;35899;50.352;19.390;2022-12-17T06:05:37;97782.17;;;-4.47;100.00
50011;BME280;35899;50.352;19.390;2022-12-17T06:08:05;97793.97;;;-4.46;100.00
50011;BME280;35899;50.352;19.390;2022-12-17T06:10:32;97798.63;;;-4.45;100.00
50011;BME280;35899;50.352;19.390;2022-12-17T06:12:58;97789.77;;;-4.45;100.00
50011;BME280;35899;50.352;19.390;2022-12-17T06:15:25;97793.13;;;-4.45;100.00
50011;BME280;35899;50.352;19.390;2022-12-17T06:17:54;97800.72;;;-4.45;100.00
50011;BME280;35899;50.352;19.390;2022-12-17T06:20:21;97801.16;;;-4.45;100.00
50011;BME280;35899;50.352;19.390;2022-12-17T06:23:03;97797.78;;;-4.47;100.00
50011;BME280;35899;50.352;19.390;2022-12-17T06:25:31;97799.91;;;-4.47;100.00
50011;BME280;35899;50.352;19.390;2022-12-17T06:28:00;97794.87;;;-4.50;100.00
50011;BME280;35899;50.352;19.390;2022-12-17T06:30:26;97806.69;;;-4.49;100.00
50011;BME280;35899;50.352;19.390;2022-12-17T06:33:08;97820.21;;;-4.52;100.00
50011;BME280;35899;50.352;19.390;2022-12-17T06:35:35;97823.62;;;-4.53;100.00
50011;BME280;35899;50.352;19.390;2022-12-17T06:38:04;97839.64;;;-4.50;100.00
50011;BME280;35899;50.352;19.390;2022-12-17T06:40:31;97848.50;;;-4.50;100.00
50011;BME280;35899;50.352;19.390;2022-12-17T06:42:58;97844.65;;;-4.47;100.00
50011;BME280;35899;50.352;19.390;2022-12-17T06:45:24;97841.28;;;-4.48;100.00
50011;BME280;35899;50.352;19.390;2022-12-17T06:47:50;97845.08;;;-4.48;100.00
50011;BME280;35899;50.352;19.390;2022-12-17T06:50:16;97849.31;;;-4.47;100.00
50011;BME280;35899;50.352;19.390;2022-12-17T06:52:43;97863.69;;;-4.49;100.00
50011;BME280;35899;50.352;19.390;2022-12-17T06:55:09;97879.74;;;-4.52;100.00
50011;BME280;35899;50.352;19.390;2022-12-17T06:57:35;97892.86;;;-4.54;100.00
50011;BME280;35899;50.352;19.390;2022-12-17T07:00:04;97897.94;;;-4.55;100.00
50011;BME280;35899;50.352;19.390;2022-12-17T07:02:31;97893.76;;;-4.59;100.00
50011;BME280;35899;50.352;19.390;2022-12-17T07:04:57;97895.45;;;-4.58;100.00
50011;BME280;35899;50.352;19.390;2022-12-17T07:07:24;97884.05;;;-4.58;100.00
50011;BME280;35899;50.352;19.390;2022-12-17T07:09:50;97891.23;;;-4.61;100.00
50011;BME280;35899;50.352;19.390;2022-12-17T07:12:16;97887.48;;;-4.62;100.00
50011;BME280;35899;50.352;19.390;2022-12-17T07:14:43;97894.20;;;-4.61;100.00
50011;BME280;35899;50.352;19.390;2022-12-17T07:17:09;97911.94;;;-4.63;100.00
50011;BME280;35899;50.352;19.390;2022-12-17T07:19:35;97909.84;;;-4.62;100.00
50011;BME280;35899;50.352;19.390;2022-12-17T07:22:02;97912.77;;;-4.61;100.00
50011;BME280;35899;50.352;19.390;2022-12-17T07:24:28;97908.97;;;-4.61;100.00
50011;BME280;35899;50.352;19.390;2022-12-17T07:26:55;97910.66;;;-4.60;100.00
50011;BME280;35899;50.352;19.390;2022-12-17T07:29:21;97921.61;;;-4.58;100.00
50011;BME280;35899;50.352;19.390;2022-12-17T07:31:48;97937.63;;;-4.56;100.00
50011;BME280;35899;50.352;19.390;2022-12-17T07:34:14;97947.32;;;-4.54;100.00
50011;BME280;35899;50.352;19.390;2022-12-17T07:36:41;97945.20;;;-4.51;100.00
50011;BME280;35899;50.352;19.390;2022-12-17T07:39:07;97944.79;;;-4.54;100.00
50011;BME280;35899;50.352;19.390;2022-12-17T07:41:33;97946.06;;;-4.55;100.00
50011;BME280;35899;50.352;19.390;2022-12-17T07:44:01;97958.73;;;-4.55;100.00
50011;BME280;35899;50.352;19.390;2022-12-17T07:46:27;97951.98;;;-4.53;100.00
50011;BME280;35899;50.352;19.390;2022-12-17T07:48:54;97950.27;;;-4.51;100.00
50011;BME280;35899;50.352;19.390;2022-12-17T07:51:20;97949.01;;;-4.51;100.00
50011;BME280;35899;50.352;19.390;2022-12-17T07:53:47;97956.55;;;-4.46;100.00
50011;BME280;35899;50.352;19.390;2022-12-17T07:56:13;97959.46;;;-4.42;100.00
50011;BME280;35899;50.352;19.390;2022-12-17T07:58:39;97974.66;;;-4.42;100.00
50011;BME280;35899;50.352;19.390;2022-12-17T08:01:06;97983.97;;;-4.43;100.00
50011;BME280;35899;50.352;19.390;2022-12-17T08:03:32;97986.50;;;-4.43;100.00
50011;BME280;35899;50.352;19.390;2022-12-17T08:05:59;97976.38;;;-4.44;100.00
50011;BME280;35899;50.352;19.390;2022-12-17T08:08:25;97974.73;;;-4.48;99.74
50011;BME280;35899;50.352;19.390;2022-12-17T08:10:51;97977.70;;;-4.49;99.87
50011;BME280;35899;50.352;19.390;2022-12-17T08:13:18;97977.31;;;-4.53;99.46
50011;BME280;35899;50.352;19.390;2022-12-17T08:15:44;97976.90;;;-4.56;99.48
50011;BME280;35899;50.352;19.390;2022-12-17T08:18:10;97989.57;;;-4.57;99.56
50011;BME280;35899;50.352;19.390;2022-12-17T08:20:37;98002.66;;;-4.56;99.58
50011;BME280;35899;50.352;19.390;2022-12-17T08:23:04;98005.59;;;-4.54;99.64
50011;BME280;35899;50.352;19.390;2022-12-17T08:25:30;98016.14;;;-4.51;99.60
50011;BME280;35899;50.352;19.390;2022-12-17T08:27:58;98022.87;;;-4.48;99.55
50011;BME280;35899;50.352;19.390;2022-12-17T08:30:25;98034.64;;;-4.43;99.84
50011;BME280;35899;50.352;19.390;2022-12-17T08:32:51;98035.48;;;-4.44;99.48
50011;BME280;35899;50.352;19.390;2022-12-17T08:35:18;98034.65;;;-4.44;99.15
50011;BME280;35899;50.352;19.390;2022-12-17T08:37:44;98033.82;;;-4.45;98.69
50011;BME280;35899;50.352;19.390;2022-12-17T08:40:10;98030.83;;;-4.40;99.07
50011;BME280;35899;50.352;19.390;2022-12-17T08:42:37;98029.50;;;-4.34;99.15
50011;BME280;35899;50.352;19.390;2022-12-17T08:45:04;98027.34;;;-4.29;98.81
50011;BME280;35899;50.352;19.390;2022-12-17T08:47:31;98037.86;;;-4.25;98.30
50011;BME280;35899;50.352;19.390;2022-12-17T08:49:57;98037.86;;;-4.24;98.36
50011;BME280;35899;50.352;19.390;2022-12-17T08:52:23;98036.91;;;-4.15;98.61
50011;BME280;35899;50.352;19.390;2022-12-17T08:54:49;98036.84;;;-4.07;98.25
50011;BME280;35899;50.352;19.390;2022-12-17T08:57:17;98045.69;;;-4.04;98.39
50011;BME280;35899;50.352;19.390;2022-12-17T08:59:43;98047.79;;;-4.04;97.98
50011;BME280;35899;50.352;19.390;2022-12-17T09:02:09;98053.31;;;-4.07;97.42
50011;BME280;35899;50.352;19.390;2022-12-17T09:04:36;98052.05;;;-4.07;97.64
50011;BME280;35899;50.352;19.390;2022-12-17T09:07:02;98050.31;;;-4.01;97.76
50011;BME280;35899;50.352;19.390;2022-12-17T09:09:28;98051.94;;;-3.94;97.57
50011;BME280;35899;50.352;19.390;2022-12-17T09:11:55;98048.48;;;-3.86;97.69
50011;BME280;35899;50.352;19.390;2022-12-17T09:14:21;98055.11;;;-3.73;97.46
50011;BME280;35899;50.352;19.390;2022-12-17T09:16:47;98049.04;;;-3.60;97.44
50011;BME280;35899;50.352;19.390;2022-12-17T09:19:14;98049.70;;;-3.47;97.00
50011;BME280;35899;50.352;19.390;2022-12-17T09:21:40;98057.30;;;-3.44;96.19
50011;BME280;35899;50.352;19.390;2022-12-17T09:24:06;98051.34;;;-3.41;95.82
50011;BME280;35899;50.352;19.390;2022-12-17T09:26:34;98056.38;;;-3.38;95.66
50011;BME280;35899;50.352;19.390;2022-12-17T09:29:01;98055.85;;;-3.30;95.85
50011;BME280;35899;50.352;19.390;2022-12-17T09:31:28;98042.20;;;-3.20;95.74
50011;BME280;35899;50.352;19.390;2022-12-17T09:33:55;98035.28;;;-3.08;95.79
50011;BME280;35899;50.352;19.390;2022-12-17T09:36:22;98035.67;;;-3.07;94.71
50011;BME280;35899;50.352;19.390;2022-12-17T09:38:48;98038.20;;;-3.06;94.85
50011;BME280;35899;50.352;19.390;2022-12-17T09:44:05;98049.14;;;-3.01;95.55
50011;BME280;35899;50.352;19.390;2022-12-17T09:46:47;98051.15;;;-2.94;95.48
50011;BME280;35899;50.352;19.390;2022-12-17T09:49:25;98051.98;;;-2.93;94.84
50011;BME280;35899;50.352;19.390;2022-12-17T09:51:53;98056.12;;;-2.86;95.08
50011;BME280;35899;50.352;19.390;2022-12-17T09:57:09;98045.97;;;-2.59;94.96
50011;BME280;35899;50.352;19.390;2022-12-17T09:59:38;98041.27;;;-2.55;94.57
50011;BME280;35899;50.352;19.390;2022-12-17T10:02:15;98048.37;;;-2.50;94.34
50011;BME280;35899;50.352;19.390;2022-12-17T10:04:47;98052.60;;;-2.49;93.87
50011;BME280;35899;50.352;19.390;2022-12-17T10:07:16;98062.80;;;-2.52;93.55
50011;BME280;35899;50.352;19.390;2022-12-17T10:09:48;98069.14;;;-2.50;93.59
50011;BME280;35899;50.352;19.390;2022-12-17T10:12:19;98071.66;;;-2.49;93.76
50011;BME280;35899;50.352;19.390;2022-12-17T10:14:45;98083.10;;;-2.49;93.53
50011;BME280;35899;50.352;19.390;2022-12-17T10:17:17;98078.05;;;-2.52;93.43
50011;BME280;35899;50.352;19.390;2022-12-17T10:19:50;98082.70;;;-2.51;93.45
50011;BME280;35899;50.352;19.390;2022-12-17T10:22:20;98083.00;;;-2.43;93.75
50011;BME280;35899;50.352;19.390;2022-12-17T10:24:47;98085.42;;;-2.35;94.18
50011;BME280;35899;50.352;19.390;2022-12-17T10:27:16;98089.59;;;-2.31;93.87
50011;BME280;35899;50.352;19.390;2022-12-17T10:29:45;98091.76;;;-2.33;93.48
50011;BME280;35899;50.352;19.390;2022-12-17T10:34:44;98086.46;;;-2.21;93.75
50011;BME280;35899;50.352;19.390;2022-12-17T10:37:18;98086.31;;;-2.12;93.94
50011;BME280;35899;50.352;19.390;2022-12-17T10:39:58;98085.39;;;-2.08;93.61
50011;BME280;35899;50.352;19.390;2022-12-17T10:42:36;98088.80;;;-2.07;92.65
50011;BME280;35899;50.352;19.390;2022-12-17T10:44:55;98087.13;;;-2.10;92.49
50011;BME280;35899;50.352;19.390;2022-12-17T10:47:25;98085.72;;;-2.02;92.54
50011;BME280;35899;50.352;19.390;2022-12-17T10:50:00;98084.31;;;-1.94;92.58
50011;BME280;35899;50.352;19.390;2022-12-17T10:52:38;98091.12;;;-1.95;91.50
50011;BME280;35899;50.352;19.390;2022-12-17T10:55:14;98080.44;;;-1.90;91.17
50011;BME280;35899;50.352;19.390;2022-12-17T10:57:35;98086.31;;;-1.86;90.60
50011;BME280;35899;50.352;19.390;2022-12-17T11:02:55;98086.50;;;-1.73;91.15
50011;BME280;35899;50.352;19.390;2022-12-17T11:05:30;98093.97;;;-1.64;90.05
50011;BME280;35899;50.352;19.390;2022-12-17T11:07:59;98099.27;;;-1.76;89.28
50011;BME280;35899;50.352;19.390;2022-12-17T11:10:30;98111.45;;;-1.93;89.27
50011;BME280;35899;50.352;19.390;2022-12-17T11:13:02;98111.58;;;-2.01;89.53
50011;BME280;35899;50.352;19.390;2022-12-17T11:18:21;98119.61;;;-2.00;90.79
50011;BME280;35899;50.352;19.390;2022-12-17T11:23:27;98126.23;;;-2.17;90.38
50011;BME280;35899;50.352;19.390;2022-12-17T11:26:02;98122.92;;;-2.21;90.84
50011;BME280;35899;50.352;19.390;2022-12-17T11:28:32;98132.32;;;-2.26;90.63
50011;BME280;35899;50.352;19.390;2022-12-17T11:36:57;98140.52;;;-2.36;90.74
50011;BME280;35899;50.352;19.390;2022-12-17T11:39:32;98147.37;;;-2.41;90.62
50011;BME280;35899;50.352;19.390;2022-12-17T11:42:25;98148.75;;;-2.48;90.32
50011;BME280;35899;50.352;19.390;2022-12-17T11:47:35;98147.71;;;-2.65;90.31
50011;BME280;35899;50.352;19.390;2022-12-17T11:50:21;98144.84;;;-2.72;90.05
50011;BME280;35899;50.352;19.390;2022-12-17T11:56:10;98149.52;;;-2.73;90.83
50011;BME280;35899;50.352;19.390;2022-12-17T12:01:33;98166.49;;;-2.76;90.52
50011;BME280;35899;50.352;19.390;2022-12-17T12:07:18;98174.14;;;-2.79;91.46
50011;BME280;35899;50.352;19.390;2022-12-17T12:09:58;98176.29;;;-2.80;91.56
50011;BME280;35899;50.352;19.390;2022-12-17T12:24:05;98189.64;;;-2.99;92.04
50011;BME280;35899;50.352;19.390;2022-12-17T12:26:49;98198.08;;;-2.97;92.26
50011;BME280;35899;50.352;19.390;2022-12-17T12:29:26;98200.56;;;-2.93;92.15
50011;BME280;35899;50.352;19.390;2022-12-17T12:32:06;98204.00;;;-2.98;91.96
50011;BME280;35899;50.352;19.390;2022-12-17T12:34:45;98206.91;;;-2.92;92.35
50011;BME280;35899;50.352;19.390;2022-12-17T12:37:14;98205.99;;;-2.86;92.27
50011;BME280;35899;50.352;19.390;2022-12-17T12:40:04;98210.19;;;-2.84;92.10
50011;BME280;35899;50.352;19.390;2022-12-17T12:42:36;98209.31;;;-2.80;92.05
50011;BME280;35899;50.352;19.390;2022-12-17T12:51:02;98227.51;;;-2.80;92.31
50011;BME280;35899;50.352;19.390;2022-12-17T12:53:32;98238.58;;;-2.86;92.10
50011;BME280;35899;50.352;19.390;2022-12-17T12:55:58;98234.45;;;-2.93;92.04
50011;BME280;35899;50.352;19.390;2022-12-17T12:58:30;98239.61;;;-3.01;91.99
50011;BME280;35899;50.352;19.390;2022-12-17T13:00:57;98242.64;;;-3.09;92.21
50011;BME280;35899;50.352;19.390;2022-12-17T13:09:18;98248.22;;;-3.14;93.01
50011;BME280;35899;50.352;19.390;2022-12-17T13:11:52;98245.23;;;-3.12;93.20
50011;BME280;35899;50.352;19.390;2022-12-17T13:17:34;98254.15;;;-3.17;93.17
50011;BME280;35899;50.352;19.390;2022-12-17T13:25:38;98263.25;;;-3.40;93.28
50011;BME280;35899;50.352;19.390;2022-12-17T13:28:25;98268.33;;;-3.38;93.74
50011;BME280;35899;50.352;19.390;2022-12-17T13:31:04;98269.98;;;-3.37;93.80
50011;BME280;35899;50.352;19.390;2022-12-17T13:33:39;98272.97;;;-3.39;93.76
50011;BME280;35899;50.352;19.390;2022-12-17T13:36:33;98278.08;;;-3.41;93.83
50011;BME280;35899;50.352;19.390;2022-12-17T13:41:57;98278.48;;;-3.40;94.19
50011;BME280;35899;50.352;19.390;2022-12-17T13:44:30;98289.08;;;-3.42;94.27
50011;BME280;35899;50.352;19.390;2022-12-17T13:47:17;98294.59;;;-3.42;94.36
50011;BME280;35899;50.352;19.390;2022-12-17T13:49:55;98300.92;;;-3.41;94.53
50011;BME280;35899;50.352;19.390;2022-12-17T13:52:20;98297.95;;;-3.40;94.71
50011;BME280;35899;50.352;19.390;2022-12-17T13:54:48;98299.23;;;-3.43;94.51
50011;BME280;35899;50.352;19.390;2022-12-17T13:57:23;98304.36;;;-3.46;94.62
50011;BME280;35899;50.352;19.390;2022-12-17T13:59:53;98304.38;;;-3.51;94.43
50011;BME280;35899;50.352;19.390;2022-12-17T14:02:27;98304.86;;;-3.58;94.50
50011;BME280;35899;50.352;19.390;2022-12-17T14:05:04;98315.03;;;-3.62;94.73